Time;durP1;ratioP1;P1;durP2;ratioP2;P2;SDS_P1;SDS_P2;PMS_P1;PMS_P2;Temp;Humidity;BMP_temperature;BMP_pressure;BME280_temperature;BME280_humidity;BME280_pressure;Samples;Min_cycle;Max_cycle;Signal;HPM_P1;HPM_P2
2022/07/04 00:04:50;;;;;;;2.45;1.83;;;;;;;16.91;59.93;100677.63;10126925;29;20040;-77
2022/07/04 00:09:55;;;;;;;2.38;2.20;;;;;;;16.71;60.39;100694.09;10146010;29;20051;-78
2022/07/04 00:14:58;;;;;;;1.83;1.73;;;;;;;16.65;60.35;100680.31;10143371;29;20138;-77
2022/07/04 00:20:01;;;;;;;3.63;1.83;;;;;;;16.59;60.72;100685.38;10140720;29;20064;-77
2022/07/04 00:25:06;;;;;;;1.88;1.55;;;;;;;16.66;60.51;100682.88;10140241;29;20075;-78
2022/07/04 00:30:10;;;;;;;2.30;2.10;;;;;;;16.37;61.25;100677.69;10141200;29;20107;-77
2022/07/04 00:35:13;;;;;;;2.30;2.08;;;;;;;15.79;63.21;100691.59;10137756;29;20060;-77
2022/07/04 00:40:17;;;;;;;3.67;2.42;;;;;;;16.10;62.36;100678.59;10134282;29;20075;-77
2022/07/04 00:45:20;;;;;;;3.28;2.53;;;;;;;15.96;62.97;100681.81;10137909;29;20518;-78
2022/07/04 00:50:24;;;;;;;3.63;2.40;;;;;;;16.14;62.45;100686.25;10135356;29;20048;-77
2022/07/04 00:55:29;;;;;;;4.55;2.70;;;;;;;16.09;62.63;100693.97;10133377;29;20071;-77
2022/07/04 01:00:32;;;;;;;3.45;2.35;;;;;;;16.07;63.05;100681.59;10136511;29;20116;-77
2022/07/04 01:05:35;;;;;;;4.40;2.67;;;;;;;16.02;63.26;100676.66;10136390;29;20059;-77
2022/07/04 01:10:39;;;;;;;5.30;2.67;;;;;;;16.08;62.82;100680.59;10137615;29;20402;-77
2022/07/04 01:15:42;;;;;;;2.67;2.47;;;;;;;16.12;62.82;100687.41;10136811;29;20123;-77
2022/07/04 01:20:46;;;;;;;2.83;2.50;;;;;;;15.96;62.98;100674.53;10138476;29;20054;-76
2022/07/04 01:25:50;;;;;;;4.28;3.03;;;;;;;15.91;63.15;100687.72;10139139;29;20056;-77
2022/07/04 01:30:53;;;;;;;3.33;3.03;;;;;;;15.47;64.97;100685.66;10139186;29;20684;-77
2022/07/04 01:35:57;;;;;;;4.57;3.08;;;;;;;15.54;64.63;100680.47;10137241;29;21322;-77
2022/07/04 01:41:00;;;;;;;3.50;3.00;;;;;;;15.52;64.72;100674.34;10138924;29;20052;-77
2022/07/04 01:46:03;;;;;;;4.88;2.78;;;;;;;15.50;64.76;100662.84;10137536;29;20091;-77
2022/07/04 01:51:07;;;;;;;6.47;3.08;;;;;;;15.70;63.99;100667.13;10137209;29;20501;-77
2022/07/04 01:56:10;;;;;;;3.28;2.55;;;;;;;15.84;64.16;100675.75;10134896;29;20048;-77
2022/07/04 02:01:31;;;;;;;3.15;2.92;;;;;;;15.84;63.45;100668.47;10138449;29;20048;-77
2022/07/04 02:06:35;;;;;;;2.92;2.63;;;;;;;15.79;63.13;100676.22;10135883;29;21147;-76
2022/07/04 02:16:59;;;;;;;3.28;2.90;;;;;;;15.36;64.49;100682.25;10145202;29;20050;-77
2022/07/04 02:22:03;;;;;;;4.95;2.97;;;;;;;14.98;65.58;100671.38;10143209;29;20139;-77
2022/07/04 02:27:06;;;;;;;3.67;2.70;;;;;;;14.96;66.00;100675.22;10146112;29;20128;-76
2022/07/04 02:32:10;;;;;;;3.42;2.90;;;;;;;14.98;66.20;100674.09;10142632;29;20051;-77
2022/07/04 02:37:14;;;;;;;3.72;2.63;;;;;;;15.17;65.24;100678.59;10145301;29;21354;-77
2022/07/04 02:42:17;;;;;;;3.45;2.70;;;;;;;15.23;64.69;100694.25;10144680;29;20128;-77
2022/07/04 02:47:19;;;;;;;4.20;2.90;;;;;;;15.12;64.85;100697.13;10146058;29;20055;-77
2022/07/04 02:52:24;;;;;;;3.28;2.95;;;;;;;14.91;66.02;100697.31;10144292;29;20494;-77
2022/07/04 02:57:27;;;;;;;4.30;2.75;;;;;;;14.93;65.69;100702.59;10144441;29;20451;-77
2022/07/04 03:02:29;;;;;;;4.05;2.90;;;;;;;15.03;66.30;100711.53;10142499;29;20107;-78
2022/07/04 03:07:34;;;;;;;3.95;3.50;;;;;;;14.96;65.79;100721.22;10142174;29;21198;-77
2022/07/04 03:12:37;;;;;;;7.50;2.90;;;;;;;14.64;66.08;100721.53;10125156;29;20048;-77
2022/07/04 03:17:39;;;;;;;4.68;4.03;;;;;;;14.57;66.81;100723.97;10147049;29;20064;-77
2022/07/04 03:22:44;;;;;;;4.93;3.30;;;;;;;14.55;66.84;100731.34;10135367;29;20044;-77
2022/07/04 03:27:46;;;;;;;5.13;3.50;;;;;;;14.51;67.00;100736.19;10140313;29;20067;-77
2022/07/04 03:32:49;;;;;;;4.60;3.10;;;;;;;14.48;66.89;100741.88;10142747;29;20067;-76
2022/07/04 03:37:55;;;;;;;6.65;3.95;;;;;;;14.50;67.00;100749.84;10161045;29;20051;-76
2022/07/04 03:42:58;;;;;;;3.80;3.50;;;;;;;14.71;66.48;100761.38;10149396;29;20124;-77
2022/07/04 03:48:02;;;;;;;5.05;3.20;;;;;;;14.92;66.18;100753.13;10142396;29;20061;-77
2022/07/04 03:53:06;;;;;;;3.72;2.50;;;;;;;15.06;65.69;100765.34;10140610;29;20216;-77
2022/07/04 03:58:09;;;;;;;5.72;4.47;;;;;;;15.15;65.23;100767.19;10142433;29;21307;-77
2022/07/04 04:08:31;;;;;;;3.25;2.92;;;;;;;15.27;63.75;100784.94;10163392;29;20060;-77
2022/07/04 04:13:33;;;;;;;3.25;2.70;;;;;;;15.34;63.91;100792.50;10146400;29;20052;-77
2022/07/04 04:18:36;;;;;;;4.05;3.55;;;;;;;15.36;64.17;100791.41;10141697;29;20577;-77
2022/07/04 04:23:41;;;;;;;7.20;3.75;;;;;;;15.30;64.48;100801.91;10143132;29;20648;-77
2022/07/04 04:28:44;;;;;;;4.88;3.70;;;;;;;15.05;66.37;100806.91;10141108;29;20063;-77
2022/07/04 04:33:46;;;;;;;7.65;4.80;;;;;;;15.06;66.71;100814.06;10141528;29;20056;-77
2022/07/04 04:38:51;;;;;;;6.95;4.60;;;;;;;15.11;66.86;100816.31;10144890;29;20052;-77
2022/07/04 04:43:54;;;;;;;5.82;4.43;;;;;;;14.90;68.12;100811.06;10122749;29;20426;-77
2022/07/04 04:48:56;;;;;;;7.70;4.88;;;;;;;14.77;69.09;100812.19;10134030;29;20115;-77
2022/07/04 04:54:01;;;;;;;5.65;5.05;;;;;;;15.11;68.54;100825.31;10139793;29;20063;-77
2022/07/04 04:59:03;;;;;;;5.47;4.75;;;;;;;15.40;67.28;100821.72;10117137;29;20052;-77
2022/07/04 05:04:06;;;;;;;6.47;4.95;;;;;;;15.65;66.63;100821.09;10141068;29;20521;-77
2022/07/04 05:09:11;;;;;;;9.95;5.70;;;;;;;15.77;66.37;100819.06;10143146;29;20052;-77
2022/07/04 05:14:13;;;;;;;7.35;6.50;;;;;;;15.62;66.48;100820.53;10146249;29;20544;-77
2022/07/04 05:19:16;;;;;;;7.30;5.18;;;;;;;15.76;66.00;100816.50;10141203;29;20147;-77
2022/07/04 05:24:20;;;;;;;7.32;5.85;;;;;;;15.14;68.61;100827.72;10140027;29;20542;-77
2022/07/04 05:29:23;;;;;;;7.00;6.20;;;;;;;15.61;67.56;100816.13;10138874;29;20075;-77
2022/07/04 05:34:26;;;;;;;8.00;7.13;;;;;;;16.02;66.96;100816.69;10141848;29;20048;-77
2022/07/04 05:39:30;;;;;;;8.15;6.80;;;;;;;16.07;66.49;100809.81;10140340;29;20119;-77
2022/07/04 05:44:33;;;;;;;7.90;6.70;;;;;;;16.18;66.59;100808.78;10118914;29;20763;-77
2022/07/04 05:49:36;;;;;;;7.57;6.20;;;;;;;16.16;66.90;100802.66;10141629;29;20763;-78
2022/07/04 05:54:40;;;;;;;6.72;5.20;;;;;;;16.40;66.64;100817.50;10141349;29;21187;-78
2022/07/04 05:59:44;;;;;;;5.05;3.53;;;;;;;16.61;65.76;100820.81;10143506;29;20514;-78
2022/07/04 06:04:47;;;;;;;5.70;3.17;;;;;;;17.01;65.50;100817.66;10130897;29;20096;-78
2022/07/04 06:09:51;;;;;;;7.60;4.32;;;;;;;16.75;65.55;100836.53;10132160;29;20080;-78
2022/07/04 06:14:54;;;;;;;6.78;3.05;;;;;;;17.27;64.12;100830.44;10143151;29;20063;-78
2022/07/04 06:19:57;;;;;;;7.13;4.50;;;;;;;17.44;63.48;100832.28;10144238;29;20280;-78
2022/07/04 06:25:01;;;;;;;8.75;4.50;;;;;;;17.29;62.79;100839.28;10144775;29;20063;-77
2022/07/04 06:30:05;;;;;;;5.40;3.83;;;;;;;17.29;63.40;100835.72;10134992;29;20481;-78
2022/07/04 06:40:30;;;;;;;6.35;3.10;;;;;;;17.12;61.69;100848.28;10143829;29;20191;-78
2022/07/04 06:45:34;;;;;;;7.20;3.72;;;;;;;17.93;59.94;100843.44;10160559;29;20063;-77
2022/07/04 06:50:37;;;;;;;4.13;2.25;;;;;;;18.47;56.39;100837.78;10150430;29;20048;-78
2022/07/04 06:55:44;;;;;;;4.97;1.92;;;;;;;18.64;54.63;100835.94;10142595;29;20411;-77
2022/07/04 07:00:47;;;;;;;6.32;2.33;;;;;;;18.23;55.70;100832.25;10118601;29;20076;-77
2022/07/04 07:05:50;;;;;;;2.40;2.08;;;;;;;18.25;54.99;100828.34;10148215;29;20052;-77
2022/07/04 07:11:13;;;;;;;2.05;1.38;;;;;;;18.73;53.16;100825.94;10152126;29;20060;-78
2022/07/04 07:16:16;;;;;;;4.00;1.63;;;;;;;18.78;52.90;100819.00;10147566;29;20068;-78
2022/07/04 07:21:19;;;;;;;2.35;1.13;;;;;;;19.59;50.26;100814.63;10144318;29;20169;-78
2022/07/04 07:26:23;;;;;;;3.50;0.85;;;;;;;20.43;45.58;100819.63;10126862;29;20529;-78
2022/07/04 07:31:26;;;;;;;3.40;0.98;;;;;;;22.42;41.31;100808.41;10147996;29;20084;-78
2022/07/04 07:36:29;;;;;;;5.05;1.20;;;;;;;23.57;38.39;100813.81;10145504;29;20052;-77
2022/07/04 07:41:34;;;;;;;3.20;1.23;;;;;;;23.27;39.08;100823.25;10142556;29;20055;-77
2022/07/04 07:46:37;;;;;;;4.15;1.10;;;;;;;24.39;37.16;100822.31;10142433;29;20119;-78
2022/07/04 07:51:40;;;;;;;3.28;1.20;;;;;;;25.92;34.95;100808.75;10140659;29;20060;-77
2022/07/04 07:56:44;;;;;;;2.13;1.13;;;;;;;24.68;36.71;100818.41;10143554;29;20056;-78
2022/07/04 08:01:47;;;;;;;1.55;0.93;;;;;;;22.92;38.64;100810.25;10132583;29;20479;-78
2022/07/04 08:06:50;;;;;;;1.77;0.75;;;;;;;22.20;40.68;100813.81;10147277;29;20107;-78
2022/07/04 08:12:14;;;;;;;2.00;0.82;;;;;;;21.20;42.38;100814.16;10167791;29;20060;-77
2022/07/04 08:17:17;;;;;;;1.88;0.75;;;;;;;21.09;41.70;100823.66;10129117;29;20059;-78
2022/07/04 08:22:20;;;;;;;2.15;1.13;;;;;;;21.31;42.63;100827.41;10138782;29;20063;-78
2022/07/04 08:27:25;;;;;;;1.70;0.70;;;;;;;21.66;40.84;100816.81;10141465;29;20063;-78
2022/07/04 08:32:35;;;;;;;3.38;2.45;;;;;;;18.80;46.99;100829.72;10137965;29;20166;-78
2022/07/04 08:37:40;;;;;;;2.30;0.98;;;;;;;20.62;43.63;100829.25;10135962;29;20056;-77
2022/07/04 08:42:44;;;;;;;1.25;0.90;;;;;;;21.21;42.89;100832.28;10136790;29;20048;-78
2022/07/04 08:47:52;;;;;;;2.55;1.48;;;;;;;20.63;43.27;100836.41;10139797;29;21175;-77
2022/07/04 08:52:58;;;;;;;1.35;0.70;;;;;;;21.13;42.88;100821.41;10140302;29;20067;-79
2022/07/04 09:03:24;;;;;;;2.20;0.85;;;;;;;20.75;43.05;100826.78;10143389;29;20052;-77
2022/07/04 09:08:28;;;;;;;2.65;0.93;;;;;;;22.19;41.42;100812.16;10169276;29;20056;-78
2022/07/04 09:13:33;;;;;;;2.55;1.05;;;;;;;21.86;42.37;100817.16;10152053;29;20115;-78
2022/07/04 09:18:37;;;;;;;1.33;0.50;;;;;;;21.78;41.42;100809.06;10147024;29;20056;-79
2022/07/04 09:23:42;;;;;;;1.50;1.40;;;;;;;22.20;40.45;100802.88;10152690;29;20056;-78
2022/07/04 09:28:52;;;;;;;2.15;0.80;;;;;;;22.76;39.44;100811.38;10141333;29;20475;-78
2022/07/04 09:33:57;;;;;;;3.78;0.80;;;;;;;21.52;41.57;100812.19;10117031;29;21759;-79
2022/07/04 09:39:21;;;;;;;2.35;0.55;;;;;;;21.72;39.99;100815.22;10139004;29;20129;-77
2022/07/04 09:44:29;;;;;;;0.75;0.60;;;;;;;23.33;38.24;100806.88;10120451;29;20052;-79
2022/07/04 09:49:32;;;;;;;1.40;0.73;;;;;;;23.04;39.71;100804.25;10141458;29;21230;-78
2022/07/04 09:54:35;;;;;;;0.85;0.73;;;;;;;22.55;40.96;100808.59;10141477;29;20056;-78
2022/07/04 09:59:39;;;;;;;2.95;0.60;;;;;;;24.17;37.19;100796.88;10139085;29;20056;-79
2022/07/04 10:04:44;;;;;;;2.47;0.80;;;;;;;24.08;36.94;100786.09;10139769;29;20640;-77
2022/07/04 10:09:47;;;;;;;1.92;0.77;;;;;;;22.80;39.99;100794.56;10120337;29;20048;-76
2022/07/04 10:14:51;;;;;;;2.25;0.73;;;;;;;22.56;39.92;100785.66;10140886;29;20059;-76
2022/07/04 10:19:55;;;;;;;2.30;0.60;;;;;;;23.17;39.07;100793.44;10134085;29;20055;-77
2022/07/04 10:24:58;;;;;;;2.83;0.82;;;;;;;23.94;37.51;100789.78;10135605;29;20423;-77
2022/07/04 10:30:06;;;;;;;1.70;0.80;;;;;;;23.40;37.94;100782.25;10136194;29;20048;-76
2022/07/04 10:35:09;;;;;;;2.78;0.77;;;;;;;22.80;39.97;100787.19;10143860;29;20391;-77
2022/07/04 10:40:43;;;;;;;1.50;0.63;;;;;;;24.20;37.08;100777.28;10146345;29;20403;-77
2022/07/04 10:45:47;;;;;;;1.45;0.70;;;;;;;23.42;37.68;100782.88;10145470;29;20044;-77
2022/07/04 10:51:00;;;;;;;1.70;0.77;;;;;;;23.00;38.83;100777.25;10143638;29;20475;-77
2022/07/04 10:56:24;;;;;;;0.95;0.60;;;;;;;24.54;36.73;100784.56;10148926;29;20410;-77
2022/07/04 11:01:29;;;;;;;2.70;0.70;;;;;;;23.59;38.02;100788.94;10147128;29;21223;-77
2022/07/04 11:06:52;;;;;;;2.28;0.65;;;;;;;23.25;38.05;100785.09;10137309;29;20060;-77
2022/07/04 11:11:58;;;;;;;2.50;1.00;;;;;;;22.92;39.32;100774.66;10147692;29;20139;-77
2022/07/04 11:17:03;;;;;;;1.77;0.70;;;;;;;22.82;39.24;100773.28;10145099;29;20705;-77
2022/07/04 11:22:08;;;;;;;2.33;0.60;;;;;;;22.33;39.94;100767.47;10124470;29;20044;-77
2022/07/04 11:27:11;;;;;;;1.95;0.80;;;;;;;23.30;38.45;100754.34;10143341;29;20085;-77
2022/07/04 11:32:15;;;;;;;2.78;1.05;;;;;;;23.56;37.21;100751.81;10142401;29;20056;-77
2022/07/04 11:37:18;;;;;;;0.60;0.57;;;;;;;23.95;37.03;100755.00;10139663;29;21560;-77
2022/07/04 11:47:45;;;;;;;2.42;0.80;;;;;;;24.50;34.74;100750.38;10142946;29;20064;-77
2022/07/04 11:52:51;;;;;;;2.17;0.60;;;;;;;25.78;34.22;100740.03;10141618;29;20091;-77
2022/07/04 11:58:14;;;;;;;2.33;0.65;;;;;;;25.16;34.03;100736.72;10141928;29;20064;-77
2022/07/04 12:03:18;;;;;;;3.13;0.77;;;;;;;25.45;34.91;100742.81;10141915;29;20150;-77
2022/07/04 12:08:22;;;;;;;2.45;0.90;;;;;;;24.56;35.01;100735.81;10142958;29;20204;-77
2022/07/04 12:13:30;;;;;;;1.63;0.90;;;;;;;24.47;35.56;100737.91;10140053;29;20122;-77
2022/07/04 12:18:35;;;;;;;7.68;1.88;;;;;;;25.54;35.27;100729.69;10120420;29;20056;-77
2022/07/04 12:23:39;;;;;;;1.73;0.63;;;;;;;26.40;33.24;100723.88;10140300;29;20092;-77
2022/07/04 12:29:02;;;;;;;4.18;0.63;;;;;;;24.57;32.92;100732.00;10140031;29;20056;-77
2022/07/04 12:34:14;;;;;;;3.08;0.80;;;;;;;23.79;36.02;100721.38;10139202;29;20051;-77
2022/07/04 12:39:30;;;;;;;;;;;;;;;23.00;35.79;100725.19;10123889;29;20076;-77
2022/07/04 12:44:33;;;;;;;1.77;0.45;;;;;;;24.50;35.83;100712.78;10105638;29;19975;-77
2022/07/04 12:49:37;;;;;;;2.45;0.60;;;;;;;26.50;32.22;100709.63;10126003;29;20526;-77
2022/07/04 12:54:41;;;;;;;2.75;0.70;;;;;;;26.43;31.57;100700.56;10142865;29;20044;-77
2022/07/04 12:59:44;;;;;;;2.10;0.70;;;;;;;24.81;33.07;100704.97;10138085;29;20048;-77
2022/07/04 13:04:49;;;;;;;3.20;0.60;;;;;;;24.09;34.77;100701.88;10143672;29;20080;-77
2022/07/04 13:09:51;;;;;;;1.65;0.75;;;;;;;24.30;34.69;100704.47;10138298;29;20130;-77
2022/07/04 13:14:55;;;;;;;2.15;0.68;;;;;;;23.89;35.52;100707.28;10137896;29;20513;-77
2022/07/04 13:20:01;;;;;;;1.42;0.60;;;;;;;25.14;33.81;100697.59;10135543;29;20082;-77
2022/07/04 13:25:07;;;;;;;2.67;0.65;;;;;;;25.80;32.05;100693.84;10135047;29;20450;-77
2022/07/04 13:30:10;;;;;;;1.48;0.65;;;;;;;26.32;32.04;100682.84;10135912;29;20052;-77
2022/07/04 13:35:15;;;;;;;1.15;0.80;;;;;;;26.92;31.57;100676.91;10137725;29;20059;-77
2022/07/04 13:40:18;;;;;;;2.17;0.60;;;;;;;27.93;29.42;100677.53;10137870;29;20060;-76
2022/07/04 13:45:20;;;;;;;2.60;0.60;;;;;;;26.77;31.17;100679.13;10136390;29;20063;-77
2022/07/04 13:50:25;;;;;;;2.20;0.70;;;;;;;27.00;30.76;100670.28;10136430;29;20056;-77
2022/07/04 13:55:28;;;;;;;3.80;0.70;;;;;;;28.57;29.73;100658.59;10136518;29;20056;-77
2022/07/04 14:00:31;;;;;;;2.78;0.73;;;;;;;27.71;28.91;100664.22;10134968;29;20044;-76
2022/07/04 14:05:35;;;;;;;1.27;0.60;;;;;;;26.93;29.89;100653.78;10132979;29;20426;-76
2022/07/04 14:10:38;;;;;;;1.38;0.60;;;;;;;27.45;29.26;100662.59;10134898;29;20051;-76
2022/07/04 14:15:41;;;;;;;1.08;0.68;;;;;;;26.47;31.02;100672.38;10132570;29;21394;-76
2022/07/04 14:20:46;;;;;;;0.82;0.60;;;;;;;28.00;28.38;100657.06;10131057;29;20110;-77
2022/07/04 14:25:49;;;;;;;1.63;0.77;;;;;;;28.25;28.73;100653.31;10129638;29;20056;-76
2022/07/04 14:30:52;;;;;;;3.15;0.63;;;;;;;27.20;30.13;100648.00;10132173;29;20080;-77
2022/07/04 14:35:56;;;;;;;0.98;0.50;;;;;;;29.11;27.80;100640.03;10135060;29;20130;-77
2022/07/04 14:41:09;;;;;;;0.60;0.60;;;;;;;27.88;28.38;100645.09;10132633;29;20060;-77
2022/07/04 14:46:13;;;;;;;4.45;0.88;;;;;;;26.40;30.72;100651.44;10132576;29;20055;-76
2022/07/04 14:51:17;;;;;;;1.02;0.63;;;;;;;25.60;31.98;100652.66;10132855;29;20689;-76
2022/07/04 14:56:20;;;;;;;3.45;0.88;;;;;;;26.12;31.87;100633.38;10134261;29;20433;-77
2022/07/04 15:01:23;;;;;;;1.83;0.70;;;;;;;25.34;31.92;100633.47;10119212;29;20152;-77
2022/07/04 15:06:28;;;;;;;1.13;0.90;;;;;;;24.76;33.37;100643.25;10136927;29;20102;-76
2022/07/04 15:11:31;;;;;;;6.82;0.98;;;;;;;23.99;33.65;100639.13;10137969;29;20056;-77
2022/07/04 15:16:33;;;;;;;0.93;0.75;;;;;;;25.58;31.87;100640.19;10139572;29;20067;-77
2022/07/04 15:26:58;;;;;;;3.45;0.90;;;;;;;26.33;32.29;100634.97;10146321;29;20125;-77
2022/07/04 15:32:01;;;;;;;2.30;0.80;;;;;;;25.59;32.37;100628.97;10143391;29;20103;-77
2022/07/04 15:37:12;;;;;;;3.65;1.00;;;;;;;25.18;33.11;100623.81;10143240;29;20056;-76
2022/07/04 15:42:15;;;;;;;1.02;0.70;;;;;;;25.81;32.15;100634.19;10143329;29;20064;-77
2022/07/04 15:47:18;;;;;;;5.00;1.05;;;;;;;24.59;34.07;100649.41;10140253;29;20052;-76
2022/07/04 15:52:23;;;;;;;5.22;1.15;;;;;;;24.16;35.43;100638.75;10142773;29;20048;-77
2022/07/04 15:57:27;;;;;;;1.73;0.93;;;;;;;25.19;33.53;100622.75;10141018;29;20067;-77
2022/07/04 16:02:29;;;;;;;5.60;1.20;;;;;;;26.51;32.21;100621.25;10143234;29;20056;-76
2022/07/04 16:07:34;;;;;;;4.57;1.20;;;;;;;25.94;32.92;100627.75;10142526;29;20067;-77
2022/07/04 16:12:36;;;;;;;3.75;1.30;;;;;;;24.80;35.41;100616.25;10134373;29;20203;-77
2022/07/04 16:17:39;;;;;;;3.17;1.05;;;;;;;25.15;34.41;100611.34;10136789;29;20052;-76
2022/07/04 16:22:44;;;;;;;2.92;1.10;;;;;;;25.65;33.78;100605.28;10137798;29;20052;-77
2022/07/04 16:27:46;;;;;;;2.30;0.93;;;;;;;27.92;31.62;100596.66;10137519;29;20051;-76
2022/07/04 16:32:49;;;;;;;1.42;0.95;;;;;;;26.50;32.39;100604.97;10117869;29;20462;-75
2022/07/04 16:37:54;;;;;;;3.50;1.10;;;;;;;25.80;33.04;100604.97;10136727;29;20055;-76
2022/07/04 16:42:57;;;;;;;2.35;0.93;;;;;;;27.56;31.52;100603.94;10137594;29;20717;-77
2022/07/04 16:48:00;;;;;;;3.92;1.17;;;;;;;26.61;32.38;100592.38;10134245;29;20047;-77
2022/07/04 16:53:04;;;;;;;1.73;1.10;;;;;;;26.22;34.02;100602.59;10135470;29;21284;-77
2022/07/04 16:58:07;;;;;;;3.63;1.17;;;;;;;29.35;29.62;100589.13;10133240;29;20569;-77
2022/07/04 17:03:11;;;;;;;4.65;1.58;;;;;;;31.51;27.17;100594.50;10133299;29;20048;-77
2022/07/04 17:08:15;;;;;;;4.18;0.95;;;;;;;29.90;28.69;100598.81;10134637;29;20052;-77
2022/07/04 17:13:18;;;;;;;1.40;0.98;;;;;;;28.24;32.18;100604.69;10134225;29;20056;-77
2022/07/04 17:18:21;;;;;;;4.57;1.23;;;;;;;33.82;25.31;100596.28;10136968;29;20052;-76
2022/07/04 17:23:25;;;;;;;4.57;1.00;;;;;;;35.67;23.13;100601.41;10128687;29;20064;-76
2022/07/04 17:28:28;;;;;;;5.45;1.38;;;;;;;34.49;23.86;100595.25;10133375;29;20067;-77
2022/07/04 17:33:32;;;;;;;2.10;1.17;;;;;;;33.52;24.95;100603.41;10133397;29;20049;-76
2022/07/04 17:38:36;;;;;;;4.03;1.50;;;;;;;32.33;27.04;100598.16;10132223;29;20527;-76
2022/07/04 17:43:39;;;;;;;5.57;1.52;;;;;;;33.65;25.49;100589.00;10135682;29;20064;-77
2022/07/04 17:48:42;;;;;;;2.30;1.70;;;;;;;32.46;26.33;100599.66;10118585;29;20052;-77
2022/07/04 17:53:46;;;;;;;7.93;1.50;;;;;;;30.57;29.01;100597.25;10115666;29;20063;-76
2022/07/04 17:58:49;;;;;;;7.40;1.60;;;;;;;26.26;34.66;100610.22;10135456;29;20061;-76
2022/07/04 18:03:52;;;;;;;7.38;1.70;;;;;;;25.26;35.77;100606.22;10133073;29;20079;-77
2022/07/04 18:08:56;;;;;;;2.05;1.58;;;;;;;24.88;36.91;100610.53;10126737;29;20052;-76
2022/07/04 18:13:59;;;;;;;3.13;1.67;;;;;;;24.37;37.45;100613.88;10133740;29;20131;-76
2022/07/04 18:19:02;;;;;;;4.90;1.55;;;;;;;23.97;38.21;100616.56;10133092;29;20044;-76
2022/07/04 18:24:07;;;;;;;3.45;1.70;;;;;;;23.34;39.61;100621.34;10137153;29;21204;-77
2022/07/04 18:29:10;;;;;;;5.47;1.70;;;;;;;22.92;40.33;100614.94;10132195;29;20048;-77
2022/07/04 18:34:13;;;;;;;4.45;1.67;;;;;;;22.87;40.76;100615.53;10134401;29;20048;-76
2022/07/04 18:39:17;;;;;;;3.50;1.50;;;;;;;22.94;40.47;100615.59;10132901;29;20083;-77
2022/07/04 18:44:20;;;;;;;2.80;2.00;;;;;;;22.36;41.46;100617.63;10132746;29;20059;-77
2022/07/04 18:49:23;;;;;;;3.08;1.65;;;;;;;22.63;41.29;100621.47;10131221;29;20448;-77
2022/07/04 18:54:27;;;;;;;4.82;1.70;;;;;;;22.31;41.89;100632.72;10134598;29;21152;-76
2022/07/04 18:59:30;;;;;;;5.55;1.75;;;;;;;22.28;42.00;100627.66;10114907;29;20055;-77
2022/07/04 19:04:33;;;;;;;4.57;1.95;;;;;;;22.20;42.68;100635.16;10139196;29;20402;-77
2022/07/04 19:09:37;;;;;;;3.25;1.98;;;;;;;22.08;43.08;100638.41;10139979;29;20107;-76
2022/07/04 19:14:40;;;;;;;3.10;1.80;;;;;;;21.84;43.22;100642.34;10120912;29;20050;-77
2022/07/04 19:19:43;;;;;;;5.05;1.90;;;;;;;21.79;43.20;100644.78;10137655;29;20055;-78
2022/07/04 19:24:48;;;;;;;3.97;2.67;;;;;;;21.75;43.81;100651.69;10146211;29;20116;-78
2022/07/04 19:29:51;;;;;;;4.45;1.65;;;;;;;21.44;43.88;100663.66;10149130;29;20047;-78
2022/07/04 19:34:54;;;;;;;4.45;1.80;;;;;;;21.31;44.36;100670.81;10129941;29;20498;-78
2022/07/04 19:39:58;;;;;;;4.40;2.17;;;;;;;21.23;45.29;100677.25;10141976;29;20075;-78
2022/07/04 19:45:01;;;;;;;4.78;1.90;;;;;;;21.20;45.03;100683.91;10142564;29;20052;-77
2022/07/04 19:50:04;;;;;;;4.22;1.70;;;;;;;21.11;46.26;100692.38;10113645;29;20548;-78
2022/07/04 19:55:10;;;;;;;3.63;2.13;;;;;;;20.89;45.72;100699.56;10139489;29;21170;-77
2022/07/04 20:00:16;;;;;;;4.50;1.95;;;;;;;20.80;45.98;100715.16;10139314;29;21112;-77
2022/07/04 20:05:19;;;;;;;2.30;1.80;;;;;;;20.66;46.45;100725.00;10132108;29;20052;-77
2022/07/04 20:10:24;;;;;;;3.25;1.85;;;;;;;20.52;46.34;100736.69;10130468;29;20534;-78
2022/07/04 20:15:27;;;;;;;2.03;1.58;;;;;;;20.42;46.63;100747.84;10138626;29;20056;-79
2022/07/04 20:20:30;;;;;;;2.08;1.50;;;;;;;20.30;46.85;100741.06;10135771;29;20058;-76
2022/07/04 20:25:36;;;;;;;1.90;1.40;;;;;;;20.14;46.96;100750.19;10138208;29;20177;-76
2022/07/04 20:30:40;;;;;;;2.53;1.60;;;;;;;20.00;47.41;100759.97;10134529;29;20052;-76
2022/07/04 20:35:43;;;;;;;4.68;1.45;;;;;;;19.89;47.63;100771.28;10135729;29;20075;-78
2022/07/04 20:40:47;;;;;;;2.13;1.50;;;;;;;19.82;47.80;100771.09;10117144;29;20044;-77
2022/07/04 20:45:50;;;;;;;5.22;1.60;;;;;;;19.67;48.13;100772.88;10133798;29;20104;-78
2022/07/04 20:50:53;;;;;;;3.20;1.30;;;;;;;19.63;47.79;100777.81;10135080;29;20087;-78
2022/07/04 20:55:58;;;;;;;3.60;1.38;;;;;;;19.49;47.74;100789.38;10135443;29;20050;-78
2022/07/04 21:01:00;;;;;;;2.40;1.33;;;;;;;19.38;47.78;100787.88;10133067;29;20474;-79
2022/07/04 21:06:03;;;;;;;7.65;1.20;;;;;;;19.35;47.86;100784.66;10134553;29;20047;-78
2022/07/04 21:11:08;;;;;;;1.77;1.30;;;;;;;19.34;47.85;100785.69;10134647;29;20371;-76
2022/07/04 21:16:11;;;;;;;1.83;1.05;;;;;;;19.29;47.94;100793.50;10136750;29;20555;-77
2022/07/04 21:21:15;;;;;;;1.30;1.20;;;;;;;19.22;47.66;100790.59;10135719;29;20048;-77
2022/07/04 21:26:19;;;;;;;3.47;1.30;;;;;;;19.13;47.61;100795.22;10134815;29;20143;-76
2022/07/04 21:31:22;;;;;;;1.73;1.45;;;;;;;19.08;47.70;100794.03;10140506;29;20052;-77
2022/07/04 21:36:25;;;;;;;3.05;1.50;;;;;;;19.06;47.58;100798.78;10147303;29;20175;-77
2022/07/04 21:41:29;;;;;;;1.98;1.10;;;;;;;19.04;47.66;100803.56;10125552;29;20067;-77
2022/07/04 21:46:32;;;;;;;2.50;1.30;;;;;;;18.96;47.99;100801.69;10137212;29;20052;-77
2022/07/04 21:51:35;;;;;;;3.17;1.00;;;;;;;18.86;48.22;100801.00;10114665;29;20048;-77
2022/07/04 21:56:39;;;;;;;3.13;1.20;;;;;;;18.80;48.10;100797.91;10137549;29;20203;-77
2022/07/04 22:01:42;;;;;;;3.80;1.13;;;;;;;18.77;48.36;100805.53;10135845;29;20044;-77
2022/07/04 22:06:44;;;;;;;3.38;1.20;;;;;;;18.67;48.25;100811.13;10132893;29;20163;-77
2022/07/04 22:11:49;;;;;;;4.47;1.20;;;;;;;18.61;48.35;100817.25;10129472;29;20067;-77
2022/07/04 22:16:51;;;;;;;3.90;1.10;;;;;;;18.44;48.72;100821.78;10133099;29;20790;-77
2022/07/04 22:21:54;;;;;;;3.67;1.58;;;;;;;18.19;48.74;100822.72;10132227;29;20048;-77
2022/07/04 22:26:58;;;;;;;3.17;2.13;;;;;;;18.21;49.20;100828.84;10131312;29;20079;-77
2022/07/04 22:32:01;;;;;;;1.58;1.10;;;;;;;18.22;49.10;100827.84;10137551;29;20069;-76
2022/07/04 22:37:04;;;;;;;2.97;1.17;;;;;;;18.13;49.88;100830.53;10137697;29;20055;-76
2022/07/04 22:42:08;;;;;;;3.95;1.15;;;;;;;17.87;49.85;100835.09;10138073;29;20162;-76
2022/07/04 22:47:11;;;;;;;2.38;1.05;;;;;;;17.65;50.40;100833.78;10138164;29;20059;-77
2022/07/04 22:52:14;;;;;;;0.98;0.88;;;;;;;16.93;52.00;100841.16;10141160;29;20402;-78
2022/07/04 22:57:19;;;;;;;4.38;1.02;;;;;;;17.03;52.22;100847.31;10142602;29;20593;-77
2022/07/04 23:02:23;;;;;;;1.40;1.20;;;;;;;17.11;51.83;100835.69;10142124;29;21193;-77
2022/07/04 23:07:26;;;;;;;2.67;1.15;;;;;;;17.25;51.56;100829.72;10139059;29;20055;-77
2022/07/04 23:12:30;;;;;;;4.13;1.20;;;;;;;17.37;51.54;100825.78;10139945;29;20494;-77
2022/07/04 23:17:33;;;;;;;2.58;1.13;;;;;;;17.36;51.02;100821.38;10137941;29;20398;-77
2022/07/04 23:22:36;;;;;;;2.78;1.13;;;;;;;17.35;51.40;100826.94;10134688;29;20063;-77
2022/07/04 23:27:40;;;;;;;3.67;1.25;;;;;;;17.35;51.31;100826.94;10137426;29;20192;-77
2022/07/04 23:32:43;;;;;;;6.53;1.10;;;;;;;17.08;51.31;100826.00;10141919;29;20147;-77
2022/07/04 23:37:46;;;;;;;2.38;1.10;;;;;;;16.58;52.27;100840.09;10139206;29;20146;-77
2022/07/04 23:42:50;;;;;;;4.85;1.30;;;;;;;15.99;53.76;100833.22;10139578;29;20047;-78
2022/07/04 23:47:53;;;;;;;3.58;1.13;;;;;;;15.63;55.26;100827.66;10125379;29;20719;-78
2022/07/04 23:52:56;;;;;;;3.33;1.30;;;;;;;15.93;54.05;100823.84;10138786;29;20068;-78